sensor_id;sensor_type;location;lat;lon;timestamp;pressure;altitude;pressure_sealevel;temperature
23992;BMP280;12205;50.600;4.608;2023-03-14T00:01:16;97318.03;;;10.68
23992;BMP280;12205;50.600;4.608;2023-03-14T00:03:43;97315.13;;;10.62
23992;BMP280;12205;50.600;4.608;2023-03-14T00:06:11;97325.91;;;10.59
23992;BMP280;12205;50.600;4.608;2023-03-14T00:08:39;97330.97;;;10.57
23992;BMP280;12205;50.600;4.608;2023-03-14T00:11:07;97322.81;;;10.60
23992;BMP280;12205;50.600;4.608;2023-03-14T00:13:34;97327.41;;;10.60
23992;BMP280;12205;50.600;4.608;2023-03-14T00:16:05;97333.28;;;10.55
23992;BMP280;12205;50.600;4.608;2023-03-14T00:18:34;97332.75;;;10.60
23992;BMP280;12205;50.600;4.608;2023-03-14T00:21:03;97334.25;;;10.61
23992;BMP280;12205;50.600;4.608;2023-03-14T00:23:33;97331.91;;;10.63
23992;BMP280;12205;50.600;4.608;2023-03-14T00:26:00;97347.25;;;10.59
23992;BMP280;12205;50.600;4.608;2023-03-14T00:28:27;97358.50;;;10.54
23992;BMP280;12205;50.600;4.608;2023-03-14T00:30:55;97344.81;;;10.52
23992;BMP280;12205;50.600;4.608;2023-03-14T00:33:22;97343.75;;;10.49
23992;BMP280;12205;50.600;4.608;2023-03-14T00:35:55;97333.91;;;10.46
23992;BMP280;12205;50.600;4.608;2023-03-14T00:38:22;97347.34;;;10.42
23992;BMP280;12205;50.600;4.608;2023-03-14T00:40:50;97363.81;;;10.41
23992;BMP280;12205;50.600;4.608;2023-03-14T00:43:21;97365.75;;;10.40
23992;BMP280;12205;50.600;4.608;2023-03-14T00:45:48;97369.88;;;10.41
23992;BMP280;12205;50.600;4.608;2023-03-14T00:48:15;97360.41;;;10.40
23992;BMP280;12205;50.600;4.608;2023-03-14T00:50:42;97366.56;;;10.37
23992;BMP280;12205;50.600;4.608;2023-03-14T00:53:11;97353.22;;;10.37
23992;BMP280;12205;50.600;4.608;2023-03-14T00:55:38;97356.22;;;10.39
23992;BMP280;12205;50.600;4.608;2023-03-14T00:58:06;97340.75;;;10.47
23992;BMP280;12205;50.600;4.608;2023-03-14T01:00:33;97350.69;;;10.46
23992;BMP280;12205;50.600;4.608;2023-03-14T01:03:00;97335.00;;;10.49
23992;BMP280;12205;50.600;4.608;2023-03-14T01:05:28;97336.81;;;10.52
23992;BMP280;12205;50.600;4.608;2023-03-14T01:07:55;97326.13;;;10.52
23992;BMP280;12205;50.600;4.608;2023-03-14T01:10:24;97322.28;;;10.53
23992;BMP280;12205;50.600;4.608;2023-03-14T01:12:51;97321.34;;;10.59
23992;BMP280;12205;50.600;4.608;2023-03-14T01:15:18;97284.47;;;10.54
23992;BMP280;12205;50.600;4.608;2023-03-14T01:17:45;97262.91;;;10.49
23992;BMP280;12205;50.600;4.608;2023-03-14T01:20:14;97229.59;;;10.40
23992;BMP280;12205;50.600;4.608;2023-03-14T01:22:41;97204.28;;;10.32
23992;BMP280;12205;50.600;4.608;2023-03-14T01:25:10;97179.84;;;10.21
23992;BMP280;12205;50.600;4.608;2023-03-14T01:27:38;97113.25;;;10.04
23992;BMP280;12205;50.600;4.608;2023-03-14T01:30:08;97076.72;;;10.01
23992;BMP280;12205;50.600;4.608;2023-03-14T01:32:36;97041.13;;;9.95
23992;BMP280;12205;50.600;4.608;2023-03-14T01:35:03;97020.28;;;9.90
23992;BMP280;12205;50.600;4.608;2023-03-14T01:37:31;96996.00;;;9.88
23992;BMP280;12205;50.600;4.608;2023-03-14T01:39:59;96963.44;;;9.93
23992;BMP280;12205;50.600;4.608;2023-03-14T01:42:25;96930.44;;;10.00
23992;BMP280;12205;50.600;4.608;2023-03-14T01:44:59;96910.72;;;9.97
23992;BMP280;12205;50.600;4.608;2023-03-14T01:47:26;96909.09;;;10.00
23992;BMP280;12205;50.600;4.608;2023-03-14T01:49:59;96887.97;;;10.05
23992;BMP280;12205;50.600;4.608;2023-03-14T01:52:29;96873.16;;;10.04
23992;BMP280;12205;50.600;4.608;2023-03-14T01:55:02;96866.84;;;10.11
23992;BMP280;12205;50.600;4.608;2023-03-14T01:57:33;96862.25;;;10.12
23992;BMP280;12205;50.600;4.608;2023-03-14T02:00:06;96842.41;;;10.13
23992;BMP280;12205;50.600;4.608;2023-03-14T02:02:42;96833.81;;;10.18
23992;BMP280;12205;50.600;4.608;2023-03-14T02:05:12;96847.16;;;10.18
23992;BMP280;12205;50.600;4.608;2023-03-14T02:07:41;96843.00;;;10.17
23992;BMP280;12205;50.600;4.608;2023-03-14T02:10:17;96834.06;;;10.11
23992;BMP280;12205;50.600;4.608;2023-03-14T02:12:47;96846.22;;;10.12
23992;BMP280;12205;50.600;4.608;2023-03-14T02:15:26;96834.06;;;10.11
23992;BMP280;12205;50.600;4.608;2023-03-14T02:18:01;96816.47;;;10.13
23992;BMP280;12205;50.600;4.608;2023-03-14T02:20:59;96820.28;;;10.12
23992;BMP280;12205;50.600;4.608;2023-03-14T02:23:32;96808.03;;;10.15
23992;BMP280;12205;50.600;4.608;2023-03-14T02:26:09;96797.66;;;10.17
23992;BMP280;12205;50.600;4.608;2023-03-14T02:28:38;96795.22;;;10.09
23992;BMP280;12205;50.600;4.608;2023-03-14T02:31:06;96790.50;;;10.14
23992;BMP280;12205;50.600;4.608;2023-03-14T02:33:35;96783.44;;;10.20
23992;BMP280;12205;50.600;4.608;2023-03-14T02:36:05;96776.34;;;10.26
23992;BMP280;12205;50.600;4.608;2023-03-14T02:38:36;96796.94;;;10.25
23992;BMP280;12205;50.600;4.608;2023-03-14T02:41:05;96802.41;;;10.22
23992;BMP280;12205;50.600;4.608;2023-03-14T02:43:39;96795.59;;;10.21
23992;BMP280;12205;50.600;4.608;2023-03-14T02:46:12;96787.91;;;10.23
23992;BMP280;12205;50.600;4.608;2023-03-14T02:48:41;96784.63;;;10.19
23992;BMP280;12205;50.600;4.608;2023-03-14T02:51:11;96793.25;;;10.23
23992;BMP280;12205;50.600;4.608;2023-03-14T02:53:39;96787.00;;;10.26
23992;BMP280;12205;50.600;4.608;2023-03-14T02:56:10;96787.59;;;10.21
23992;BMP280;12205;50.600;4.608;2023-03-14T02:58:37;96792.63;;;10.19
23992;BMP280;12205;50.600;4.608;2023-03-14T03:01:26;96785.75;;;10.08
23992;BMP280;12205;50.600;4.608;2023-03-14T03:03:53;96796.97;;;10.03
23992;BMP280;12205;50.600;4.608;2023-03-14T03:06:20;96780.09;;;10.06
23992;BMP280;12205;50.600;4.608;2023-03-14T03:08:47;96756.41;;;10.08
23992;BMP280;12205;50.600;4.608;2023-03-14T03:11:14;96761.13;;;10.04
23992;BMP280;12205;50.600;4.608;2023-03-14T03:13:41;96760.38;;;10.04
23992;BMP280;12205;50.600;4.608;2023-03-14T03:16:09;96746.59;;;10.05
23992;BMP280;12205;50.600;4.608;2023-03-14T03:18:37;96751.94;;;10.05
23992;BMP280;12205;50.600;4.608;2023-03-14T03:21:05;96748.97;;;10.03
23992;BMP280;12205;50.600;4.608;2023-03-14T03:23:34;96751.94;;;10.05
23992;BMP280;12205;50.600;4.608;2023-03-14T03:26:01;96743.63;;;10.03
23992;BMP280;12205;50.600;4.608;2023-03-14T03:28:29;96725.50;;;9.98
23992;BMP280;12205;50.600;4.608;2023-03-14T03:30:57;96733.06;;;10.00
23992;BMP280;12205;50.600;4.608;2023-03-14T03:33:24;96729.41;;;10.06
23992;BMP280;12205;50.600;4.608;2023-03-14T03:35:53;96728.78;;;10.02
23992;BMP280;12205;50.600;4.608;2023-03-14T03:38:27;96724.63;;;10.01
23992;BMP280;12205;50.600;4.608;2023-03-14T03:40:58;96727.63;;;10.03
23992;BMP280;12205;50.600;4.608;2023-03-14T03:43:27;96713.66;;;9.99
23992;BMP280;12205;50.600;4.608;2023-03-14T03:45:54;96712.63;;;9.97
23992;BMP280;12205;50.600;4.608;2023-03-14T03:48:23;96707.78;;;10.04
23992;BMP280;12205;50.600;4.608;2023-03-14T03:50:50;96712.22;;;10.07
23992;BMP280;12205;50.600;4.608;2023-03-14T03:53:22;96717.25;;;10.05
23992;BMP280;12205;50.600;4.608;2023-03-14T03:55:49;96720.69;;;10.06
23992;BMP280;12205;50.600;4.608;2023-03-14T03:58:16;96704.78;;;10.02
23992;BMP280;12205;50.600;4.608;2023-03-14T04:00:43;96697.97;;;10.01
23992;BMP280;12205;50.600;4.608;2023-03-14T04:03:10;96692.16;;;9.94
23992;BMP280;12205;50.600;4.608;2023-03-14T04:05:37;96705.84;;;10.05
23992;BMP280;12205;50.600;4.608;2023-03-14T04:08:09;96693.13;;;10.09
23992;BMP280;12205;50.600;4.608;2023-03-14T04:10:38;96700.25;;;10.12
23992;BMP280;12205;50.600;4.608;2023-03-14T04:13:11;96693.38;;;10.02
23992;BMP280;12205;50.600;4.608;2023-03-14T04:15:39;96702.47;;;10.14
23992;BMP280;12205;50.600;4.608;2023-03-14T04:18:27;96711.34;;;10.11
23992;BMP280;12205;50.600;4.608;2023-03-14T04:20:57;96698.00;;;10.11
23992;BMP280;12205;50.600;4.608;2023-03-14T04:23:32;96706.34;;;10.13
23992;BMP280;12205;50.600;4.608;2023-03-14T04:26:01;96697.72;;;10.08
23992;BMP280;12205;50.600;4.608;2023-03-14T04:28:31;96687.91;;;10.05
23992;BMP280;12205;50.600;4.608;2023-03-14T04:30:58;96680.22;;;10.07
23992;BMP280;12205;50.600;4.608;2023-03-14T04:33:26;96690.41;;;10.00
23992;BMP280;12205;50.600;4.608;2023-03-14T04:35:55;96669.69;;;10.04
23992;BMP280;12205;50.600;4.608;2023-03-14T04:38:22;96668.81;;;10.07
23992;BMP280;12205;50.600;4.608;2023-03-14T04:40:50;96673.38;;;10.06
23992;BMP280;12205;50.600;4.608;2023-03-14T04:43:21;96670.16;;;10.12
23992;BMP280;12205;50.600;4.608;2023-03-14T04:45:53;96662.59;;;10.10
23992;BMP280;12205;50.600;4.608;2023-03-14T04:48:20;96665.44;;;10.16
23992;BMP280;12205;50.600;4.608;2023-03-14T04:50:48;96667.41;;;10.15
23992;BMP280;12205;50.600;4.608;2023-03-14T04:53:16;96662.47;;;10.14
23992;BMP280;12205;50.600;4.608;2023-03-14T04:55:48;96659.50;;;10.12
23992;BMP280;12205;50.600;4.608;2023-03-14T04:58:15;96652.56;;;10.14
23992;BMP280;12205;50.600;4.608;2023-03-14T05:00:44;96644.72;;;10.20
23992;BMP280;12205;50.600;4.608;2023-03-14T05:03:30;96658.34;;;10.22
23992;BMP280;12205;50.600;4.608;2023-03-14T05:06:08;96654.50;;;10.23
23992;BMP280;12205;50.600;4.608;2023-03-14T05:08:42;96656.44;;;10.22
23992;BMP280;12205;50.600;4.608;2023-03-14T05:11:24;96650.78;;;10.20
23992;BMP280;12205;50.600;4.608;2023-03-14T05:14:08;96638.63;;;10.19
23992;BMP280;12205;50.600;4.608;2023-03-14T05:16:57;96639.50;;;10.16
23992;BMP280;12205;50.600;4.608;2023-03-14T05:19:45;96636.38;;;10.18
23992;BMP280;12205;50.600;4.608;2023-03-14T05:22:25;96648.09;;;10.11
23992;BMP280;12205;50.600;4.608;2023-03-14T05:25:11;96663.38;;;10.20
23992;BMP280;12205;50.600;4.608;2023-03-14T05:27:56;96669.03;;;10.22
23992;BMP280;12205;50.600;4.608;2023-03-14T05:30:42;96684.28;;;10.21
23992;BMP280;12205;50.600;4.608;2023-03-14T05:33:27;96690.34;;;10.22
23992;BMP280;12205;50.600;4.608;2023-03-14T05:36:18;96701.03;;;10.22
23992;BMP280;12205;50.600;4.608;2023-03-14T05:39:03;96697.78;;;10.27
23992;BMP280;12205;50.600;4.608;2023-03-14T05:41:41;96702.66;;;10.19
23992;BMP280;12205;50.600;4.608;2023-03-14T05:44:43;96697.34;;;10.19
23992;BMP280;12205;50.600;4.608;2023-03-14T05:47:39;96701.91;;;10.19
23992;BMP280;12205;50.600;4.608;2023-03-14T05:50:22;96711.25;;;10.14
23992;BMP280;12205;50.600;4.608;2023-03-14T05:53:14;96711.06;;;10.18
23992;BMP280;12205;50.600;4.608;2023-03-14T05:55:52;96714.94;;;10.17
23992;BMP280;12205;50.600;4.608;2023-03-14T05:58:35;96716.03;;;10.28
23992;BMP280;12205;50.600;4.608;2023-03-14T06:01:08;96721.25;;;10.32
23992;BMP280;12205;50.600;4.608;2023-03-14T06:03:49;96738.59;;;10.37
23992;BMP280;12205;50.600;4.608;2023-03-14T06:06:18;96747.66;;;10.39
23992;BMP280;12205;50.600;4.608;2023-03-14T06:08:45;96758.63;;;10.32
23992;BMP280;12205;50.600;4.608;2023-03-14T06:11:15;96755.97;;;10.41
23992;BMP280;12205;50.600;4.608;2023-03-14T06:13:43;96776.44;;;10.44
23992;BMP280;12205;50.600;4.608;2023-03-14T06:16:10;96782.25;;;10.52
23992;BMP280;12205;50.600;4.608;2023-03-14T06:18:37;96784.06;;;10.55
23992;BMP280;12205;50.600;4.608;2023-03-14T06:21:07;96804.09;;;10.60
23992;BMP280;12205;50.600;4.608;2023-03-14T06:23:36;96816.53;;;10.54
23992;BMP280;12205;50.600;4.608;2023-03-14T06:26:04;96824.84;;;10.56
23992;BMP280;12205;50.600;4.608;2023-03-14T06:28:32;96821.13;;;10.53
23992;BMP280;12205;50.600;4.608;2023-03-14T06:31:01;96808.19;;;10.52
23992;BMP280;12205;50.600;4.608;2023-03-14T06:33:34;96795.44;;;10.46
23992;BMP280;12205;50.600;4.608;2023-03-14T06:36:02;96764.91;;;10.48
23992;BMP280;12205;50.600;4.608;2023-03-14T06:38:30;96758.94;;;10.43
23992;BMP280;12205;50.600;4.608;2023-03-14T06:41:04;96745.03;;;10.49
23992;BMP280;12205;50.600;4.608;2023-03-14T06:43:37;96746.94;;;10.48
23992;BMP280;12205;50.600;4.608;2023-03-14T06:46:05;96736.72;;;10.46
23992;BMP280;12205;50.600;4.608;2023-03-14T06:48:34;96729.28;;;10.41
23992;BMP280;12205;50.600;4.608;2023-03-14T06:51:02;96723.38;;;10.46
23992;BMP280;12205;50.600;4.608;2023-03-14T06:53:29;96723.69;;;10.49
23992;BMP280;12205;50.600;4.608;2023-03-14T06:55:58;96726.78;;;10.47
23992;BMP280;12205;50.600;4.608;2023-03-14T06:58:28;96729.75;;;10.49
23992;BMP280;12205;50.600;4.608;2023-03-14T07:00:55;96735.25;;;10.55
23992;BMP280;12205;50.600;4.608;2023-03-14T07:03:26;96740.59;;;10.55
23992;BMP280;12205;50.600;4.608;2023-03-14T07:05:55;96750.66;;;10.51
23992;BMP280;12205;50.600;4.608;2023-03-14T07:08:22;96739.53;;;10.52
23992;BMP280;12205;50.600;4.608;2023-03-14T07:10:49;96750.22;;;10.52
23992;BMP280;12205;50.600;4.608;2023-03-14T07:13:17;96749.19;;;10.59
23992;BMP280;12205;50.600;4.608;2023-03-14T07:15:55;96765.22;;;10.59
23992;BMP280;12205;50.600;4.608;2023-03-14T07:18:22;96844.97;;;10.48
23992;BMP280;12205;50.600;4.608;2023-03-14T07:20:49;96991.09;;;9.86
23992;BMP280;12205;50.600;4.608;2023-03-14T07:23:16;97028.06;;;9.46
23992;BMP280;12205;50.600;4.608;2023-03-14T07:25:47;97054.63;;;8.94
23992;BMP280;12205;50.600;4.608;2023-03-14T07:28:15;97092.94;;;8.51
23992;BMP280;12205;50.600;4.608;2023-03-14T07:30:45;97065.72;;;8.27
23992;BMP280;12205;50.600;4.608;2023-03-14T07:33:18;97067.81;;;8.19
23992;BMP280;12205;50.600;4.608;2023-03-14T07:35:47;97176.22;;;7.95
23992;BMP280;12205;50.600;4.608;2023-03-14T07:38:14;97154.75;;;7.66
23992;BMP280;12205;50.600;4.608;2023-03-14T07:40:59;97164.69;;;7.62
23992;BMP280;12205;50.600;4.608;2023-03-14T07:43:27;97155.81;;;7.48
23992;BMP280;12205;50.600;4.608;2023-03-14T07:46:00;97182.63;;;7.34
23992;BMP280;12205;50.600;4.608;2023-03-14T07:48:28;97179.63;;;7.32
23992;BMP280;12205;50.600;4.608;2023-03-14T07:50:55;97164.53;;;7.29
23992;BMP280;12205;50.600;4.608;2023-03-14T07:53:22;97191.88;;;7.26
23992;BMP280;12205;50.600;4.608;2023-03-14T07:55:51;97175.59;;;7.24
23992;BMP280;12205;50.600;4.608;2023-03-14T07:58:18;97199.97;;;7.18
23992;BMP280;12205;50.600;4.608;2023-03-14T08:00:45;97195.34;;;7.23
23992;BMP280;12205;50.600;4.608;2023-03-14T08:03:12;97244.31;;;7.22
23992;BMP280;12205;50.600;4.608;2023-03-14T08:05:40;97263.22;;;7.24
23992;BMP280;12205;50.600;4.608;2023-03-14T08:08:08;97298.50;;;7.24
23992;BMP280;12205;50.600;4.608;2023-03-14T08:10:35;97289.97;;;7.36
23992;BMP280;12205;50.600;4.608;2023-03-14T08:13:01;97273.16;;;7.43
23992;BMP280;12205;50.600;4.608;2023-03-14T08:15:30;97312.31;;;7.39
23992;BMP280;12205;50.600;4.608;2023-03-14T08:17:57;97281.84;;;7.47
23992;BMP280;12205;50.600;4.608;2023-03-14T08:20:26;97297.16;;;7.40
23992;BMP280;12205;50.600;4.608;2023-03-14T08:22:56;97304.13;;;7.30
23992;BMP280;12205;50.600;4.608;2023-03-14T08:25:24;97272.25;;;7.30
23992;BMP280;12205;50.600;4.608;2023-03-14T08:27:51;97257.78;;;7.31
23992;BMP280;12205;50.600;4.608;2023-03-14T08:30:19;97237.00;;;7.26
23992;BMP280;12205;50.600;4.608;2023-03-14T08:32:46;97279.38;;;7.09
23992;BMP280;12205;50.600;4.608;2023-03-14T08:35:14;97306.28;;;7.11
23992;BMP280;12205;50.600;4.608;2023-03-14T08:37:41;97305.47;;;7.14
23992;BMP280;12205;50.600;4.608;2023-03-14T08:40:10;97322.25;;;7.08
23992;BMP280;12205;50.600;4.608;2023-03-14T08:42:38;97336.41;;;7.01
23992;BMP280;12205;50.600;4.608;2023-03-14T08:45:06;97384.22;;;6.94
23992;BMP280;12205;50.600;4.608;2023-03-14T08:47:34;97411.78;;;6.76
23992;BMP280;12205;50.600;4.608;2023-03-14T08:50:01;97426.91;;;6.76
23992;BMP280;12205;50.600;4.608;2023-03-14T08:52:29;97439.06;;;6.73
23992;BMP280;12205;50.600;4.608;2023-03-14T08:54:57;97447.41;;;6.75
23992;BMP280;12205;50.600;4.608;2023-03-14T08:57:25;97435.88;;;6.89
23992;BMP280;12205;50.600;4.608;2023-03-14T08:59:53;97441.16;;;6.93
23992;BMP280;12205;50.600;4.608;2023-03-14T09:02:21;97461.69;;;6.89
23992;BMP280;12205;50.600;4.608;2023-03-14T09:04:49;97470.06;;;6.84
23992;BMP280;12205;50.600;4.608;2023-03-14T09:07:16;97492.53;;;6.75
23992;BMP280;12205;50.600;4.608;2023-03-14T09:09:43;97484.56;;;6.75
23992;BMP280;12205;50.600;4.608;2023-03-14T09:12:11;97516.03;;;6.73
23992;BMP280;12205;50.600;4.608;2023-03-14T09:14:39;97535.03;;;6.68
23992;BMP280;12205;50.600;4.608;2023-03-14T09:17:06;97546.78;;;6.71
23992;BMP280;12205;50.600;4.608;2023-03-14T09:19:33;97559.66;;;6.69
23992;BMP280;12205;50.600;4.608;2023-03-14T09:22:00;97609.75;;;6.63
23992;BMP280;12205;50.600;4.608;2023-03-14T09:24:27;97613.53;;;6.62
23992;BMP280;12205;50.600;4.608;2023-03-14T09:26:54;97654.50;;;6.57
23992;BMP280;12205;50.600;4.608;2023-03-14T09:29:21;97632.44;;;6.68
23992;BMP280;12205;50.600;4.608;2023-03-14T09:31:50;97677.25;;;6.58
23992;BMP280;12205;50.600;4.608;2023-03-14T09:34:17;97686.06;;;6.44
23992;BMP280;12205;50.600;4.608;2023-03-14T09:36:44;97610.66;;;6.42
23992;BMP280;12205;50.600;4.608;2023-03-14T09:39:11;97634.91;;;6.40
23992;BMP280;12205;50.600;4.608;2023-03-14T09:41:41;97670.16;;;6.37
23992;BMP280;12205;50.600;4.608;2023-03-14T09:44:13;97681.16;;;6.39
23992;BMP280;12205;50.600;4.608;2023-03-14T09:46:43;97699.34;;;6.37
23992;BMP280;12205;50.600;4.608;2023-03-14T09:49:19;97719.06;;;6.36
23992;BMP280;12205;50.600;4.608;2023-03-14T09:51:48;97749.34;;;6.39
23992;BMP280;12205;50.600;4.608;2023-03-14T09:54:30;97774.38;;;6.34
23992;BMP280;12205;50.600;4.608;2023-03-14T09:56:57;97804.66;;;6.40
23992;BMP280;12205;50.600;4.608;2023-03-14T09:59:25;97831.97;;;6.37
23992;BMP280;12205;50.600;4.608;2023-03-14T10:01:53;97842.97;;;6.39
23992;BMP280;12205;50.600;4.608;2023-03-14T10:04:22;97858.47;;;6.44
23992;BMP280;12205;50.600;4.608;2023-03-14T10:06:49;97951.31;;;6.30
23992;BMP280;12205;50.600;4.608;2023-03-14T10:09:20;97976.31;;;6.29
23992;BMP280;12205;50.600;4.608;2023-03-14T10:11:54;97982.78;;;6.28
23992;BMP280;12205;50.600;4.608;2023-03-14T10:14:30;98021.81;;;6.31
23992;BMP280;12205;50.600;4.608;2023-03-14T10:17:05;98053.59;;;6.27
23992;BMP280;12205;50.600;4.608;2023-03-14T10:19:34;98013.06;;;6.41
23992;BMP280;12205;50.600;4.608;2023-03-14T10:22:03;98065.03;;;6.57
23992;BMP280;12205;50.600;4.608;2023-03-14T10:24:32;98088.91;;;6.71
23992;BMP280;12205;50.600;4.608;2023-03-14T10:27:01;98140.50;;;6.77
23992;BMP280;12205;50.600;4.608;2023-03-14T10:29:29;98119.25;;;6.95
23992;BMP280;12205;50.600;4.608;2023-03-14T10:31:59;98180.31;;;7.06
23992;BMP280;12205;50.600;4.608;2023-03-14T10:34:30;98241.44;;;7.13
23992;BMP280;12205;50.600;4.608;2023-03-14T10:37:05;98262.69;;;7.21
23992;BMP280;12205;50.600;4.608;2023-03-14T10:39:37;98274.47;;;7.27
23992;BMP280;12205;50.600;4.608;2023-03-14T10:42:14;98315.44;;;7.26
23992;BMP280;12205;50.600;4.608;2023-03-14T10:44:43;98336.31;;;7.24
23992;BMP280;12205;50.600;4.608;2023-03-14T10:47:17;98375.03;;;7.17
23992;BMP280;12205;50.600;4.608;2023-03-14T10:49:45;98372.38;;;7.21
23992;BMP280;12205;50.600;4.608;2023-03-14T10:52:18;98395.53;;;7.17
23992;BMP280;12205;50.600;4.608;2023-03-14T10:54:53;98386.44;;;7.22
23992;BMP280;12205;50.600;4.608;2023-03-14T10:57:21;98396.31;;;7.25
23992;BMP280;12205;50.600;4.608;2023-03-14T10:59:48;98438.81;;;7.32
23992;BMP280;12205;50.600;4.608;2023-03-14T11:02:29;98417.59;;;7.43
23992;BMP280;12205;50.600;4.608;2023-03-14T11:05:06;98410.03;;;7.56
23992;BMP280;12205;50.600;4.608;2023-03-14T11:07:38;98435.91;;;7.73
23992;BMP280;12205;50.600;4.608;2023-03-14T11:10:14;98473.91;;;7.77
23992;BMP280;12205;50.600;4.608;2023-03-14T11:12:48;98498.19;;;7.72
23992;BMP280;12205;50.600;4.608;2023-03-14T11:15:21;98483.78;;;7.80
23992;BMP280;12205;50.600;4.608;2023-03-14T11:18:03;98524.44;;;7.84
23992;BMP280;12205;50.600;4.608;2023-03-14T11:20:38;98530.16;;;7.86
23992;BMP280;12205;50.600;4.608;2023-03-14T11:23:14;98519.53;;;7.94
23992;BMP280;12205;50.600;4.608;2023-03-14T11:25:51;98546.91;;;7.98
23992;BMP280;12205;50.600;4.608;2023-03-14T11:28:23;98586.41;;;7.96
23992;BMP280;12205;50.600;4.608;2023-03-14T11:30:54;98614.50;;;7.82
23992;BMP280;12205;50.600;4.608;2023-03-14T11:33:23;98593.97;;;7.83
23992;BMP280;12205;50.600;4.608;2023-03-14T11:35:57;98568.91;;;7.87
23992;BMP280;12205;50.600;4.608;2023-03-14T11:38:33;98574.97;;;7.92
23992;BMP280;12205;50.600;4.608;2023-03-14T11:41:01;98625.13;;;7.82
23992;BMP280;12205;50.600;4.608;2023-03-14T11:43:30;98628.09;;;7.70
23992;BMP280;12205;50.600;4.608;2023-03-14T11:46:07;98641.31;;;7.52
23992;BMP280;12205;50.600;4.608;2023-03-14T11:48:39;98609.75;;;7.47
23992;BMP280;12205;50.600;4.608;2023-03-14T11:51:12;98607.41;;;7.38
23992;BMP280;12205;50.600;4.608;2023-03-14T11:53:49;98610.41;;;7.33
23992;BMP280;12205;50.600;4.608;2023-03-14T11:56:23;98608.44;;;7.23
23992;BMP280;12205;50.600;4.608;2023-03-14T11:58:57;98591.34;;;7.16
23992;BMP280;12205;50.600;4.608;2023-03-14T12:01:29;98534.44;;;7.17
23992;BMP280;12205;50.600;4.608;2023-03-14T12:04:02;98503.22;;;7.04
23992;BMP280;12205;50.600;4.608;2023-03-14T12:06:35;98472.38;;;6.85
23992;BMP280;12205;50.600;4.608;2023-03-14T12:09:08;98406.78;;;6.89
23992;BMP280;12205;50.600;4.608;2023-03-14T12:11:40;98407.09;;;6.76
23992;BMP280;12205;50.600;4.608;2023-03-14T12:14:21;98389.28;;;6.77
23992;BMP280;12205;50.600;4.608;2023-03-14T12:16:49;98392.94;;;6.58
23992;BMP280;12205;50.600;4.608;2023-03-14T12:19:33;98423.09;;;6.32
23992;BMP280;12205;50.600;4.608;2023-03-14T12:25:00;98300.63;;;6.19
23992;BMP280;12205;50.600;4.608;2023-03-14T12:28:04;98304.72;;;6.13
23992;BMP280;12205;50.600;4.608;2023-03-14T12:30:34;98304.72;;;6.13
23992;BMP280;12205;50.600;4.608;2023-03-14T12:33:28;98302.38;;;6.00
23992;BMP280;12205;50.600;4.608;2023-03-14T12:36:12;98270.63;;;6.07
23992;BMP280;12205;50.600;4.608;2023-03-14T12:38:54;98280.44;;;6.03
23992;BMP280;12205;50.600;4.608;2023-03-14T12:41:27;98253.59;;;6.08
23992;BMP280;12205;50.600;4.608;2023-03-14T12:43:56;98232.00;;;6.14
23992;BMP280;12205;50.600;4.608;2023-03-14T12:46:24;98201.72;;;6.15
23992;BMP280;12205;50.600;4.608;2023-03-14T12:48:55;98227.50;;;6.18
23992;BMP280;12205;50.600;4.608;2023-03-14T12:51:29;98232.47;;;6.23
23992;BMP280;12205;50.600;4.608;2023-03-14T12:54:12;98252.47;;;6.17
23992;BMP280;12205;50.600;4.608;2023-03-14T12:56:54;98265.34;;;6.15
23992;BMP280;12205;50.600;4.608;2023-03-14T12:59:30;98258.88;;;6.08
23992;BMP280;12205;50.600;4.608;2023-03-14T13:02:15;98267.22;;;6.07
23992;BMP280;12205;50.600;4.608;2023-03-14T13:04:48;98280.84;;;6.05
23992;BMP280;12205;50.600;4.608;2023-03-14T13:07:31;98302.25;;;5.79
23992;BMP280;12205;50.600;4.608;2023-03-14T13:10:05;98298.38;;;5.72
23992;BMP280;12205;50.600;4.608;2023-03-14T13:12:48;98287.47;;;5.78
23992;BMP280;12205;50.600;4.608;2023-03-14T13:15:22;98321.41;;;5.61
23992;BMP280;12205;50.600;4.608;2023-03-14T13:17:51;98318.66;;;5.50
23992;BMP280;12205;50.600;4.608;2023-03-14T13:20:24;98302.75;;;5.50
23992;BMP280;12205;50.600;4.608;2023-03-14T13:22:53;98314.09;;;5.47
23992;BMP280;12205;50.600;4.608;2023-03-14T13:25:20;98317.91;;;5.50
23992;BMP280;12205;50.600;4.608;2023-03-14T13:27:52;98308.72;;;5.44
23992;BMP280;12205;50.600;4.608;2023-03-14T13:30:22;98348.81;;;5.38
23992;BMP280;12205;50.600;4.608;2023-03-14T13:32:50;98357.75;;;5.27
23992;BMP280;12205;50.600;4.608;2023-03-14T13:35:21;98374.97;;;5.10
23992;BMP280;12205;50.600;4.608;2023-03-14T13:37:53;98378.63;;;5.01
23992;BMP280;12205;50.600;4.608;2023-03-14T13:40:25;98356.00;;;5.04
23992;BMP280;12205;50.600;4.608;2023-03-14T13:43:02;98367.25;;;4.97
23992;BMP280;12205;50.600;4.608;2023-03-14T13:45:29;98337.09;;;5.06
23992;BMP280;12205;50.600;4.608;2023-03-14T13:47:56;98344.97;;;4.98
23992;BMP280;12205;50.600;4.608;2023-03-14T13:50:23;98337.09;;;5.06
23992;BMP280;12205;50.600;4.608;2023-03-14T13:52:55;98314.09;;;5.13
23992;BMP280;12205;50.600;4.608;2023-03-14T13:55:22;98322.06;;;5.13
23992;BMP280;12205;50.600;4.608;2023-03-14T13:57:50;98353.69;;;5.02
23992;BMP280;12205;50.600;4.608;2023-03-14T14:00:23;98407.09;;;4.78
23992;BMP280;12205;50.600;4.608;2023-03-14T14:02:53;98410.66;;;4.66
23992;BMP280;12205;50.600;4.608;2023-03-14T14:05:21;98397.16;;;4.71
23992;BMP280;12205;50.600;4.608;2023-03-14T14:07:49;98391.50;;;4.73
23992;BMP280;12205;50.600;4.608;2023-03-14T14:10:18;98391.41;;;4.65
23992;BMP280;12205;50.600;4.608;2023-03-14T14:12:47;98399.44;;;4.73
23992;BMP280;12205;50.600;4.608;2023-03-14T14:15:20;98397.97;;;4.75
23992;BMP280;12205;50.600;4.608;2023-03-14T14:17:51;98396.38;;;4.71
23992;BMP280;12205;50.600;4.608;2023-03-14T14:20:22;98404.72;;;4.73
23992;BMP280;12205;50.600;4.608;2023-03-14T14:22:50;98392.81;;;4.86
23992;BMP280;12205;50.600;4.608;2023-03-14T14:25:18;98381.09;;;4.87
23992;BMP280;12205;50.600;4.608;2023-03-14T14:27:48;98375.19;;;4.97
23992;BMP280;12205;50.600;4.608;2023-03-14T14:30:28;98411.81;;;4.92
23992;BMP280;12205;50.600;4.608;2023-03-14T14:33:16;98410.72;;;4.96
23992;BMP280;12205;50.600;4.608;2023-03-14T14:35:50;98413.44;;;5.03
23992;BMP280;12205;50.600;4.608;2023-03-14T14:38:18;98409.75;;;5.08
23992;BMP280;12205;50.600;4.608;2023-03-14T14:40:49;98412.09;;;5.17
23992;BMP280;12205;50.600;4.608;2023-03-14T14:43:19;98419.91;;;5.36